createdAt,value
2022-08-17T00:09:57.634Z,100.00
2022-08-17T00:20:00.420Z,100.00
2022-08-17T00:30:02.083Z,100.00
2022-08-17T00:40:04.758Z,100.00
2022-08-17T00:50:14.894Z,100.00
2022-08-17T01:00:26.888Z,100.00
2022-08-17T01:10:59.457Z,100.00
2022-08-17T01:21:14.926Z,100.00
2022-08-17T01:31:17.599Z,100.00
2022-08-17T01:41:22.002Z,100.00
2022-08-17T01:51:32.716Z,100.00
2022-08-17T02:01:35.406Z,100.00
2022-08-17T02:11:39.547Z,100.00
2022-08-17T02:21:47.426Z,100.00
2022-08-17T02:31:49.359Z,100.00
2022-08-17T02:42:01.094Z,100.00
2022-08-17T02:52:04.229Z,100.00
2022-08-17T03:02:11.723Z,100.00
2022-08-17T03:12:15.078Z,100.00
2022-08-17T03:22:36.749Z,100.00
2022-08-17T03:32:47.706Z,100.00
2022-08-17T03:42:52.658Z,100.00
2022-08-17T03:53:21.834Z,100.00
2022-08-17T04:03:23.515Z,100.00
2022-08-17T04:13:25.705Z,100.00
2022-08-17T04:23:33.782Z,100.00
2022-08-17T04:33:37.810Z,100.00
2022-08-17T04:43:41.394Z,100.00
2022-08-17T04:53:51.077Z,100.00
2022-08-17T05:04:02.414Z,100.00
2022-08-17T05:14:32.451Z,100.00
2022-08-17T05:24:40.722Z,100.00
2022-08-17T05:34:47.510Z,100.00
2022-08-17T05:44:49.233Z,100.00
2022-08-17T05:55:27.476Z,99.59
2022-08-17T06:05:48.329Z,94.13
2022-08-17T06:16:31.065Z,88.71
2022-08-17T06:26:43.173Z,82.33
2022-08-17T06:37:10.457Z,77.58
2022-08-17T06:47:41.589Z,71.63
2022-08-17T06:57:52.611Z,68.19
2022-08-17T07:08:14.801Z,64.15
2022-08-17T07:18:16.477Z,59.88
2022-08-17T07:28:26.324Z,56.94
2022-08-17T07:38:31.673Z,53.52
2022-08-17T07:48:41.817Z,51.38
2022-08-17T07:58:43.493Z,49.30
2022-08-17T08:08:53.021Z,45.48
2022-08-17T08:18:58.590Z,43.80
2022-08-17T08:29:39.742Z,42.13
2022-08-17T08:40:11.522Z,41.05
2022-08-17T08:50:30.227Z,39.51
2022-08-17T09:00:48.214Z,38.90
2022-08-17T09:11:05.216Z,37.33
2022-08-17T09:21:47.934Z,34.90
2022-08-17T09:32:01.940Z,32.75
2022-08-17T09:42:16.013Z,31.01
2022-08-17T09:52:19.975Z,29.93
2022-08-17T10:02:40.834Z,28.92
2022-08-17T10:12:53.120Z,27.65
2022-08-17T10:23:24.831Z,25.12
2022-08-17T10:33:40.546Z,23.67
2022-08-17T10:44:36.558Z,21.21
2022-08-17T10:54:39.086Z,20.07
2022-08-17T11:05:00.379Z,20.29
2022-08-17T11:15:36.260Z,18.32
2022-08-17T11:25:52.638Z,17.47
2022-08-17T11:36:19.795Z,15.49
2022-08-17T11:47:08.454Z,12.97
2022-08-17T11:57:47.301Z,11.99
2022-08-17T12:08:10.843Z,16.54
2022-08-17T12:18:45.584Z,13.29
2022-08-17T12:28:50.397Z,14.62
2022-08-17T12:39:13.668Z,9.05
2022-08-17T12:49:16.606Z,8.92
2022-08-17T12:59:30.406Z,9.15
2022-08-17T13:09:40.118Z,9.71
2022-08-17T13:19:49.681Z,13.63
2022-08-17T13:29:59.636Z,10.73
2022-08-17T13:40:13.366Z,9.57
2022-08-17T13:50:21.806Z,11.99
2022-08-17T14:00:31.770Z,9.44
2022-08-17T14:10:36.851Z,10.57
2022-08-17T14:20:39.965Z,9.41
2022-08-17T14:30:47.643Z,8.52
2022-08-17T14:40:49.592Z,8.49
2022-08-17T14:50:52.477Z,10.90
2022-08-17T15:01:01.734Z,9.19
2022-08-17T15:11:04.591Z,8.51
2022-08-17T15:21:16.117Z,8.69
2022-08-17T15:31:20.193Z,11.31
2022-08-17T15:41:37.790Z,15.95
2022-08-17T16:24:37.376Z,19.75
2022-08-17T16:34:41.781Z,24.35
2022-08-17T16:44:44.533Z,22.67
2022-08-17T16:54:48.459Z,24.60
2022-08-17T17:05:27.081Z,24.33
2022-08-17T17:15:39.560Z,25.72
2022-08-17T17:25:55.570Z,27.95
2022-08-17T17:36:07.145Z,26.83
2022-08-17T17:46:26.485Z,27.71
2022-08-17T17:56:46.711Z,29.41
2022-08-17T18:07:10.149Z,29.66
2022-08-17T18:17:14.557Z,31.21
2022-08-17T18:27:24.361Z,31.16
2022-08-17T18:37:35.216Z,31.78
2022-08-17T18:47:53.061Z,32.77
2022-08-17T18:58:15.549Z,34.19
2022-08-17T19:08:28.754Z,34.82
2022-08-17T19:18:36.472Z,36.92
2022-08-17T19:29:00.131Z,36.44
2022-08-17T19:39:11.637Z,37.83
2022-08-17T19:49:32.872Z,38.92
2022-08-17T20:00:01.133Z,40.67
2022-08-17T20:10:08.205Z,41.21
2022-08-17T20:20:20.079Z,41.80
2022-08-17T20:30:42.824Z,43.18
2022-08-17T20:40:58.032Z,44.70
2022-08-17T20:51:28.931Z,46.16
2022-08-17T21:01:42.079Z,48.30
2022-08-17T21:12:03.733Z,50.46
2022-08-17T21:22:16.702Z,52.71
2022-08-17T21:32:29.060Z,53.40
2022-08-17T21:42:34.518Z,55.00
2022-08-17T21:52:40.582Z,56.62
2022-08-17T22:02:44.609Z,58.58
2022-08-17T22:13:04.593Z,60.05
2022-08-17T22:23:31.333Z,61.79
2022-08-17T22:33:33.496Z,62.22
2022-08-17T22:43:38.987Z,63.13
2022-08-17T22:54:17.832Z,63.46
2022-08-17T23:04:40.318Z,64.51
2022-08-17T23:14:45.559Z,65.30
2022-08-17T23:24:50.505Z,67.37
2022-08-17T23:35:01.262Z,68.96
2022-08-17T23:45:03.859Z,69.67
2022-08-17T23:55:06.194Z,72.62
